Time;durP1;ratioP1;P1;durP2;ratioP2;P2;SDS_P1;SDS_P2;PMS_P1;PMS_P2;Temp;Humidity;BMP_temperature;BMP_pressure;BME280_temperature;BME280_humidity;BME280_pressure;Samples;Min_cycle;Max_cycle;Signal;HPM_P1;HPM_P2
2023/06/03 00:01:58;;;;;;;;;;;;;;;;;;5026220;28;1363;-57
2023/06/03 00:04:24;;;;;;;;;;;;;;;;;;5008190;28;4679;-59
2023/06/03 00:06:49;;;;;;;;;;;;;;;;;;5003199;28;5133;-57
2023/06/03 00:09:14;;;;;;;;;;;;;;;;;;5007796;28;4496;-57
2023/06/03 00:11:40;;;;;;;;;;;;;;;;;;5004209;28;4645;-57
2023/06/03 00:14:05;;;;;;;;;;;;;;;;;;5008698;28;1505;-56
2023/06/03 00:16:32;;;;;;;;;;;;;;;;;;5006966;28;5069;-57
2023/06/03 00:18:57;;;;;;;;;;;;;;;;;;5007567;28;5074;-56
2023/06/03 00:21:23;;;;;;;;;;;;;;;;;;5009202;28;4622;-57
2023/06/03 00:23:49;;;;;;;;;;;;;;;;;;5007742;28;4642;-58
2023/06/03 00:26:14;;;;;;;;;;;;;;;;;;5005976;28;1214;-60
2023/06/03 00:28:39;;;;;;;;;;;;;;;;;;5005000;28;5014;-58
2023/06/03 00:31:04;;;;;;;;;;;;;;;;;;5009412;28;5876;-57
2023/06/03 00:33:30;;;;;;;;;;;;;;;;;;5001163;28;4882;-56
2023/06/03 00:35:56;;;;;;;;;;;;;;;;;;5007632;28;4684;-56
2023/06/03 00:38:21;;;;;;;;;;;;;;;;;;5008173;28;3254;-56
2023/06/03 00:40:46;;;;;;;;;;;;;;;;;;5006595;28;4410;-57
2023/06/03 00:43:11;;;;;;;;;;;;;;;;;;5009303;28;4438;-57
2023/06/03 00:45:37;;;;;;;;;;;;;;;;;;5005353;28;4497;-57
2023/06/03 00:48:02;;;;;;;;;;;;;;;;;;5003831;28;4477;-57
2023/06/03 00:50:29;;;;;;;;;;;;;;;;;;5006938;28;4454;-56
2023/06/03 00:52:54;;;;;;;;;;;;;;;;;;5023533;28;1992;-60
2023/06/03 00:55:19;;;;;;;;;;;;;;;;;;5008979;28;5104;-59
2023/06/03 00:57:45;;;;;;;;;;;;;;;;;;5022882;28;5277;-58
2023/06/03 01:00:10;;;;;;;;;;;;;;;;;;5008587;28;4466;-56
2023/06/03 01:02:36;;;;;;;;;;;;;;;;;;5006324;28;4943;-57
2023/06/03 01:05:03;;;;;;;;;;;;;;;;;;5007567;28;1164;-58
2023/06/03 01:07:47;;;;;;;;;;;;;;;;;;5006436;28;4468;-57
2023/06/03 01:10:31;;;;;;;;;;;;;;;;;;5004130;28;4435;-57
2023/06/03 01:13:08;;;;;;;;;;;;;;;;;;5023453;28;4700;-58
2023/06/03 01:15:34;;;;;;;;;;;;;;;;;;5007792;28;5024;-58
2023/06/03 01:18:01;;;;;;;;;;;;;;;;;;5007082;28;4921;-59
2023/06/03 01:20:28;;;;;;;;;;;;;;;;;;5003112;28;5022;-57
2023/06/03 01:22:56;;;;;;;;;;;;;;;;;;5004379;28;1281;-56
2023/06/03 01:25:23;;;;;;;;;;;;;;;;;;5005515;28;4432;-57
2023/06/03 01:27:48;;;;;;;;;;;;;;;;;;5007702;28;4491;-59
2023/06/03 01:30:15;;;;;;;;;;;;;;;;;;5006196;28;5004;-58
2023/06/03 01:32:44;;;;;;;;;;;;;;;;;;5007168;28;4761;-58
2023/06/03 01:35:09;;;;;;;;;;;;;;;;;;5008376;28;1109;-57
2023/06/03 01:37:35;;;;;;;;;;;;;;;;;;5020838;28;4411;-57
2023/06/03 01:40:01;;;;;;;;;;;;;;;;;;5008068;28;4604;-59
2023/06/03 01:42:26;;;;;;;;;;;;;;;;;;5006267;28;4631;-57
2023/06/03 01:44:51;;;;;;;;;;;;;;;;;;5008253;28;4476;-58
2023/06/03 01:47:17;;;;;;;;;;;;;;;;;;5021636;28;3227;-57
2023/06/03 01:49:42;;;;;;;;;;;;;;;;;;5019216;28;4442;-57
2023/06/03 01:52:07;;;;;;;;;;;;;;;;;;5002289;28;5179;-57
2023/06/03 01:54:32;;;;;;;;;;;;;;;;;;5004408;28;4810;-57
2023/06/03 01:56:58;;;;;;;;;;;;;;;;;;5006703;28;4557;-57
2023/06/03 01:59:23;;;;;;;;;;;;;;;;;;5003786;28;4506;-56
2023/06/03 02:01:50;;;;;;;;;;;;;;;;;;5001093;28;3238;-57
2023/06/03 02:04:16;;;;;;;;;;;;;;;;;;5006920;28;4609;-56
2023/06/03 02:06:41;;;;;;;;;;;;;;;;;;5005622;28;4499;-58
2023/06/03 02:09:09;;;;;;;;;;;;;;;;;;5007624;28;4439;-58
2023/06/03 02:11:34;;;;;;;;;;;;;;;;;;5020656;28;4503;-56
2023/06/03 02:14:01;;;;;;;;;;;;;;;;;;5008181;28;1914;-57
2023/06/03 02:16:26;;;;;;;;;;;;;;;;;;5005073;28;4444;-60
2023/06/03 02:18:53;;;;;;;;;;;;;;;;;;5006719;28;4993;-57
2023/06/03 02:21:18;;;;;;;;;;;;;;;;;;5021803;28;4610;-58
2023/06/03 02:23:43;;;;;;;;;;;;;;;;;;5007161;28;4650;-57
2023/06/03 02:26:13;;;;;;;;;;;;;;;;;;5000100;28;3240;-58
2023/06/03 02:28:38;;;;;;;;;;;;;;;;;;5001168;28;4601;-55
2023/06/03 02:31:03;;;;;;;;;;;;;;;;;;5006749;28;4491;-58
2023/06/03 02:33:29;;;;;;;;;;;;;;;;;;5007251;28;5118;-57
2023/06/03 02:35:54;;;;;;;;;;;;;;;;;;5006922;28;4621;-57
2023/06/03 02:38:20;;;;;;;;;;;;;;;;;;5006998;28;1117;-56
2023/06/03 02:40:45;;;;;;;;;;;;;;;;;;5002476;28;4909;-57
2023/06/03 02:43:10;;;;;;;;;;;;;;;;;;5006205;28;4488;-59
2023/06/03 02:45:36;;;;;;;;;;;;;;;;;;5007613;28;4960;-58
2023/06/03 02:48:01;;;;;;;;;;;;;;;;;;5006780;28;4539;-56
2023/06/03 02:50:26;;;;;;;;;;;;;;;;;;5011885;28;4537;-58
2023/06/03 02:52:52;;;;;;;;;;;;;;;;;;5006413;28;3183;-57
2023/06/03 02:55:17;;;;;;;;;;;;;;;;;;5007513;28;4473;-57
2023/06/03 02:57:42;;;;;;;;;;;;;;;;;;5010543;28;4513;-57
2023/06/03 03:00:11;;;;;;;;;;;;;;;;;;5009787;28;4916;-58
2023/06/03 03:02:37;;;;;;;;;;;;;;;;;;5024545;28;4857;-57
2023/06/03 03:05:02;;;;;;;;;;;;;;;;;;5011407;28;1117;-57
2023/06/03 03:07:28;;;;;;;;;;;;;;;;;;5009187;28;4499;-56
2023/06/03 03:09:53;;;;;;;;;;;;;;;;;;5004854;28;4813;-57
2023/06/03 03:12:19;;;;;;;;;;;;;;;;;;5009543;28;4694;-58
2023/06/03 03:14:44;;;;;;;;;;;;;;;;;;5010464;28;4816;-58
2023/06/03 03:17:10;;;;;;;;;;;;;;;;;;5010439;28;2135;-58
2023/06/03 03:19:35;;;;;;;;;;;;;;;;;;5010187;28;4808;-56
2023/06/03 03:22:01;;;;;;;;;;;;;;;;;;5008639;28;4630;-58
2023/06/03 03:24:26;;;;;;;;;;;;;;;;;;5010829;28;4796;-60
2023/06/03 03:26:51;;;;;;;;;;;;;;;;;;5022715;28;4628;-60
2023/06/03 03:29:18;;;;;;;;;;;;;;;;;;5024925;28;3258;-57
2023/06/03 03:31:44;;;;;;;;;;;;;;;;;;5008422;28;4675;-57
2023/06/03 03:34:09;;;;;;;;;;;;;;;;;;5010745;28;4437;-58
2023/06/03 03:36:36;;;;;;;;;;;;;;;;;;5010162;28;4490;-56
2023/06/03 03:39:01;;;;;;;;;;;;;;;;;;5007799;28;5059;-58
2023/06/03 03:41:27;;;;;;;;;;;;;;;;;;5009963;28;4950;-58
2023/06/03 03:43:52;;;;;;;;;;;;;;;;;;5010517;28;1702;-56
2023/06/03 03:46:18;;;;;;;;;;;;;;;;;;5008192;28;5105;-58
2023/06/03 03:48:44;;;;;;;;;;;;;;;;;;5007579;28;4703;-57
2023/06/03 03:51:10;;;;;;;;;;;;;;;;;;5007305;28;4437;-58
2023/06/03 03:53:35;;;;;;;;;;;;;;;;;;5009887;28;4488;-59
2023/06/03 03:56:00;;;;;;;;;;;;;;;;;;5007690;28;3350;-57
2023/06/03 03:58:33;;;;;;;;;;;;;;;;;;5006296;28;4975;-58
2023/06/03 04:01:00;;;;;;;;;;;;;;;;;;5023228;28;4483;-58
2023/06/03 04:03:26;;;;;;;;;;;;;;;;;;5009771;28;4458;-57
2023/06/03 04:05:51;;;;;;;;;;;;;;;;;;5009901;28;5074;-57
2023/06/03 04:08:38;;;;;;;;;;;;;;;;;;5006083;28;3262;-58
2023/06/03 04:11:04;;;;;;;;;;;;;;;;;;5009077;28;5165;-57
2023/06/03 04:13:29;;;;;;;;;;;;;;;;;;5010035;28;4610;-55
2023/06/03 04:15:55;;;;;;;;;;;;;;;;;;5007865;28;5154;-58
2023/06/03 04:18:21;;;;;;;;;;;;;;;;;;5006667;28;4600;-58
2023/06/03 04:20:48;;;;;;;;;;;;;;;;;;5023904;28;4655;-56
2023/06/03 04:23:15;;;;;;;;;;;;;;;;;;5008021;28;1281;-58
2023/06/03 04:25:41;;;;;;;;;;;;;;;;;;5006548;28;4474;-58
2023/06/03 04:28:06;;;;;;;;;;;;;;;;;;5005927;28;4586;-58
2023/06/03 04:30:31;;;;;;;;;;;;;;;;;;5006541;28;5040;-59
2023/06/03 04:32:57;;;;;;;;;;;;;;;;;;5002740;28;4773;-58
2023/06/03 04:35:23;;;;;;;;;;;;;;;;;;5006477;28;1085;-57
2023/06/03 04:37:49;;;;;;;;;;;;;;;;;;5009124;28;5115;-54
2023/06/03 04:40:14;;;;;;;;;;;;;;;;;;5009274;28;4935;-57
2023/06/03 04:42:41;;;;;;;;;;;;;;;;;;5022321;28;4483;-58
2023/06/03 04:45:07;;;;;;;;;;;;;;;;;;5023069;28;4552;-56
2023/06/03 04:47:33;;;;;;;;;;;;;;;;;;5009039;28;4468;-59
2023/06/03 04:50:00;;;;;;;;;;;;;;;;;;5001067;28;1684;-58
2023/06/03 04:52:27;;;;;;;;;;;;;;;;;;5022112;28;4819;-56
2023/06/03 04:54:52;;;;;;;;;;;;;;;;;;5006433;28;5081;-58
2023/06/03 04:57:17;;;;;;;;;;;;;;;;;;5013606;28;4592;-57
2023/06/03 04:59:43;;;;;;;;;;;;;;;;;;5021882;28;4512;-58
2023/06/03 05:02:08;;;;;;;;;;;;;;;;;;5008586;28;3395;-58
2023/06/03 05:04:34;;;;;;;;;;;;;;;;;;5005851;28;4468;-56
2023/06/03 05:07:00;;;;;;;;;;;;;;;;;;5007362;28;4993;-57
2023/06/03 05:09:25;;;;;;;;;;;;;;;;;;5004363;28;4819;-59
2023/06/03 05:11:51;;;;;;;;;;;;;;;;;;5005234;28;4720;-58
2023/06/03 05:14:16;;;;;;;;;;;;;;;;;;5020978;28;3505;-59
2023/06/03 05:16:41;;;;;;;;;;;;;;;;;;5004225;28;4576;-58
2023/06/03 05:19:07;;;;;;;;;;;;;;;;;;5007445;28;4527;-56
2023/06/03 05:21:32;;;;;;;;;;;;;;;;;;5008435;28;4653;-61
2023/06/03 05:23:57;;;;;;;;;;;;;;;;;;5008412;28;4454;-57
2023/06/03 05:26:22;;;;;;;;;;;;;;;;;;5003628;28;3159;-58
2023/06/03 05:28:48;;;;;;;;;;;;;;;;;;5006911;28;4425;-57
2023/06/03 05:31:13;;;;;;;;;;;;;;;;;;5007153;28;4584;-58
2023/06/03 05:33:40;;;;;;;;;;;;;;;;;;5007711;28;5037;-57
2023/06/03 05:36:05;;;;;;;;;;;;;;;;;;5008496;28;4647;-56
2023/06/03 05:38:31;;;;;;;;;;;;;;;;;;5008553;28;4837;-57
2023/06/03 05:40:56;;;;;;;;;;;;;;;;;;5007608;28;2014;-58
2023/06/03 05:43:23;;;;;;;;;;;;;;;;;;5007948;28;4403;-57
2023/06/03 05:45:49;;;;;;;;;;;;;;;;;;5005177;28;4470;-58
2023/06/03 05:48:14;;;;;;;;;;;;;;;;;;5007401;28;5165;-57
2023/06/03 05:50:47;;;;;;;;;;;;;;;;;;5007694;28;4454;-57
2023/06/03 05:53:12;;;;;;;;;;;;;;;;;;5006799;28;3551;-58
2023/06/03 05:55:37;;;;;;;;;;;;;;;;;;5007478;28;4401;-58
2023/06/03 05:58:02;;;;;;;;;;;;;;;;;;5007638;28;4501;-60
2023/06/03 06:00:28;;;;;;;;;;;;;;;;;;5003201;28;4465;-59
2023/06/03 06:02:53;;;;;;;;;;;;;;;;;;5022698;28;4931;-59
2023/06/03 06:05:18;;;;;;;;;;;;;;;;;;5018000;28;1106;-57
2023/06/03 06:07:44;;;;;;;;;;;;;;;;;;5007653;28;4399;-60
2023/06/03 06:10:09;;;;;;;;;;;;;;;;;;5006807;28;4454;-57
2023/06/03 06:12:34;;;;;;;;;;;;;;;;;;5005787;28;4642;-59
2023/06/03 06:14:59;;;;;;;;;;;;;;;;;;5004383;28;4452;-58
2023/06/03 06:17:25;;;;;;;;;;;;;;;;;;5005984;28;4523;-57
2023/06/03 06:19:50;;;;;;;;;;;;;;;;;;5007361;28;1744;-58
2023/06/03 06:22:15;;;;;;;;;;;;;;;;;;5004774;28;4525;-58
2023/06/03 06:24:41;;;;;;;;;;;;;;;;;;5002980;28;5009;-58
2023/06/03 06:27:06;;;;;;;;;;;;;;;;;;5003216;28;5465;-56
2023/06/03 06:29:32;;;;;;;;;;;;;;;;;;5003399;28;4981;-60
2023/06/03 06:31:57;;;;;;;;;;;;;;;;;;5007287;28;4809;-57
2023/06/03 06:34:29;;;;;;;;;;;;;;;;;;5007100;28;4552;-57
2023/06/03 06:36:55;;;;;;;;;;;;;;;;;;5006046;28;4598;-58
2023/06/03 06:39:32;;;;;;;;;;;;;;;;;;5021558;28;4899;-58
2023/06/03 06:42:04;;;;;;;;;;;;;;;;;;5007578;28;4434;-56
2023/06/03 06:44:30;;;;;;;;;;;;;;;;;;5020214;28;4525;-61
2023/06/03 06:46:55;;;;;;;;;;;;;;;;;;5021129;28;3334;-57
2023/06/03 06:49:20;;;;;;;;;;;;;;;;;;5003568;28;4445;-60
2023/06/03 06:51:46;;;;;;;;;;;;;;;;;;5021829;28;4464;-58
2023/06/03 06:54:11;;;;;;;;;;;;;;;;;;5002054;28;5096;-56
2023/06/03 06:56:36;;;;;;;;;;;;;;;;;;5001129;28;4853;-58
2023/06/03 06:59:02;;;;;;;;;;;;;;;;;;5035932;28;3869;-56
2023/06/03 07:01:27;;;;;;;;;;;;;;;;;;4999141;28;4561;-57
2023/06/03 07:03:53;;;;;;;;;;;;;;;;;;5006439;28;4520;-57
2023/06/03 07:06:19;;;;;;;;;;;;;;;;;;5005336;28;4995;-57
2023/06/03 07:08:44;;;;;;;;;;;;;;;;;;5003031;28;4496;-56
2023/06/03 07:11:09;;;;;;;;;;;;;;;;;;5003452;28;3513;-57
2023/06/03 07:13:35;;;;;;;;;;;;;;;;;;5003706;28;4593;-59
2023/06/03 07:16:00;;;;;;;;;;;;;;;;;;5004863;28;4669;-64
2023/06/03 07:18:26;;;;;;;;;;;;;;;;;;5004095;28;4665;-64
2023/06/03 07:20:52;;;;;;;;;;;;;;;;;;5001298;28;4603;-63
2023/06/03 07:23:21;;;;;;;;;;;;;;;;;;5002611;28;3468;-61
2023/06/03 07:25:49;;;;;;;;;;;;;;;;;;4987214;28;4567;-61
2023/06/03 07:28:15;;;;;;;;;;;;;;;;;;4999486;28;4516;-67
2023/06/03 07:30:40;;;;;;;;;;;;;;;;;;5002600;28;4459;-67
2023/06/03 07:33:08;;;;;;;;;;;;;;;;;;5001437;28;4871;-66
2023/06/03 07:35:34;;;;;;;;;;;;;;;;;;5005632;28;4437;-66
2023/06/03 07:38:00;;;;;;;;;;;;;;;;;;5009620;28;3697;-67
2023/06/03 07:40:37;;;;;;;;;;;;;;;;;;5007226;28;4793;-66
2023/06/03 07:43:02;;;;;;;;;;;;;;;;;;5001932;28;4718;-63
2023/06/03 07:45:28;;;;;;;;;;;;;;;;;;5001939;28;4890;-71
2023/06/03 07:49:04;;;;;;;;;;;;;;;;;;5044919;27;4598;-61
2023/06/03 07:51:29;;;;;;;;;;;;;;;;;;5034436;28;4530;-61
2023/06/03 07:53:55;;;;;;;;;;;;;;;;;;5016129;28;4758;-60
2023/06/03 07:56:21;;;;;;;;;;;;;;;;;;5000857;28;3432;-61
2023/06/03 07:58:46;;;;;;;;;;;;;;;;;;5037437;28;5028;-62
2023/06/03 08:01:11;;;;;;;;;;;;;;;;;;5056326;28;5045;-60
2023/06/03 08:03:36;;;;;;;;;;;;;;;;;;5042427;28;4657;-61
2023/06/03 08:06:02;;;;;;;;;;;;;;;;;;5037514;28;5018;-63
2023/06/03 08:08:33;;;;;;;;;;;;;;;;;;5041098;28;4702;-63
2023/06/03 08:10:59;;;;;;;;;;;;;;;;;;5037702;28;3494;-62
2023/06/03 08:13:24;;;;;;;;;;;;;;;;;;5056329;28;4710;-62
2023/06/03 08:15:50;;;;;;;;;;;;;;;;;;5039280;28;4902;-61
2023/06/03 08:18:35;;;;;;;;;;;;;;;;;;5053730;28;4893;-60
2023/06/03 08:21:01;;;;;;;;;;;;;;;;;;5036227;28;4984;-59
2023/06/03 08:23:26;;;;;;;;;;;;;;;;;;5039943;28;4833;-60
2023/06/03 08:25:51;;;;;;;;;;;;;;;;;;5034490;28;3509;-60
2023/06/03 08:28:16;;;;;;;;;;;;;;;;;;5040434;28;5084;-59
2023/06/03 08:30:42;;;;;;;;;;;;;;;;;;5041143;28;4496;-59
2023/06/03 08:33:07;;;;;;;;;;;;;;;;;;5037309;28;4693;-59
2023/06/03 08:35:33;;;;;;;;;;;;;;;;;;5037221;28;4713;-60
2023/06/03 08:37:59;;;;;;;;;;;;;;;;;;5039269;28;3393;-59
2023/06/03 08:40:25;;;;;;;;;;;;;;;;;;5033743;28;4735;-58
2023/06/03 08:42:51;;;;;;;;;;;;;;;;;;5036602;28;4741;-59
2023/06/03 08:45:16;;;;;;;;;;;;;;;;;;5048886;28;4965;-59
2023/06/03 08:47:54;;;;;;;;;;;;;;;;;;5040515;28;5181;-60
2023/06/03 08:50:24;;;;;;;;;;;;;;;;;;5034364;28;3473;-61
2023/06/03 08:52:49;;;;;;;;;;;;;;;;;;5042004;28;4967;-62
2023/06/03 08:55:15;;;;;;;;;;;;;;;;;;5054008;28;5204;-60
2023/06/03 08:57:43;;;;;;;;;;;;;;;;;;5044269;28;5488;-60
2023/06/03 09:00:09;;;;;;;;;;;;;;;;;;5041064;28;5043;-61
2023/06/03 09:02:35;;;;;;;;;;;;;;;;;;5025715;28;5167;-61
2023/06/03 09:05:03;;;;;;;;;;;;;;;;;;5026304;28;3362;-63
2023/06/03 09:07:30;;;;;;;;;;;;;;;;;;5037747;28;4851;-62
2023/06/03 09:09:55;;;;;;;;;;;;;;;;;;5026576;28;5131;-63
2023/06/03 09:12:20;;;;;;;;;;;;;;;;;;5025479;28;5149;-64
2023/06/03 09:14:46;;;;;;;;;;;;;;;;;;5026016;28;4691;-64
2023/06/03 09:17:11;;;;;;;;;;;;;;;;;;5027126;28;3677;-65
2023/06/03 09:19:36;;;;;;;;;;;;;;;;;;5024983;28;4466;-65
2023/06/03 09:22:02;;;;;;;;;;;;;;;;;;5040528;28;5062;-64
2023/06/03 09:24:27;;;;;;;;;;;;;;;;;;5028412;28;4539;-64
2023/06/03 09:26:52;;;;;;;;;;;;;;;;;;5051513;28;4598;-63
2023/06/03 09:29:18;;;;;;;;;;;;;;;;;;5042764;28;3708;-64
2023/06/03 09:31:43;;;;;;;;;;;;;;;;;;5026209;28;4904;-62
2023/06/03 09:34:08;;;;;;;;;;;;;;;;;;5024398;28;5008;-63
2023/06/03 09:36:44;;;;;;;;;;;;;;;;;;5043396;28;4699;-63
2023/06/03 09:39:10;;;;;;;;;;;;;;;;;;5051823;28;4516;-63
2023/06/03 09:41:35;;;;;;;;;;;;;;;;;;5018039;28;4771;-62
2023/06/03 09:44:02;;;;;;;;;;;;;;;;;;5019628;28;3900;-68
2023/06/03 09:46:30;;;;;;;;;;;;;;;;;;5038998;28;4507;-66
2023/06/03 09:49:08;;;;;;;;;;;;;;;;;;5023402;28;5048;-67
2023/06/03 09:51:46;;;;;;;;;;;;;;;;;;5023753;28;4522;-68
2023/06/03 09:54:15;;;;;;;;;;;;;;;;;;5015930;28;4497;-72
2023/06/03 09:56:41;;;;;;;;;;;;;;;;;;5018257;28;6282;-69
2023/06/03 09:59:13;;;;;;;;;;;;;;;;;;5016532;28;3453;-68
2023/06/03 10:01:38;;;;;;;;;;;;;;;;;;4999300;28;4594;-67
2023/06/03 10:04:03;;;;;;;;;;;;;;;;;;5024034;28;4515;-67
2023/06/03 10:06:30;;;;;;;;;;;;;;;;;;5019646;28;4760;-68
2023/06/03 10:08:56;;;;;;;;;;;;;;;;;;5017382;28;4572;-70
2023/06/03 10:11:23;;;;;;;;;;;;;;;;;;5052810;28;3265;-69
2023/06/03 10:13:49;;;;;;;;;;;;;;;;;;5012637;28;4602;-67
2023/06/03 10:16:14;;;;;;;;;;;;;;;;;;5027483;28;4524;-64
2023/06/03 10:18:40;;;;;;;;;;;;;;;;;;5017858;28;1970;-62
2023/06/03 10:21:09;;;;;;;;;;;;;;;;;;5022387;28;2288;-62
2023/06/03 10:23:35;;;;;;;;;;;;;;;;;;5026044;28;2000;-62
2023/06/03 10:26:01;;;;;;;;;;;;;;;;;;5052581;28;2271;-63
2023/06/03 10:28:26;;;;;;;;;;;;;;;;;;5037171;28;2046;-66
2023/06/03 10:30:51;;;;;;;;;;;;;;;;;;5042603;28;1789;-67
2023/06/03 10:33:18;;;;;;;;;;;;;;;;;;5027699;28;1858;-63
2023/06/03 10:35:43;;;;;;;;;;;;;;;;;;5043308;28;2389;-69
2023/06/03 10:38:09;;;;;;;;;;;;;;;;;;5028286;28;1865;-68
2023/06/03 10:40:34;;;;;;;;;;;;;;;;;;5026206;28;1898;-66
2023/06/03 10:43:00;;;;;;;;;;;;;;;;;;5028734;28;1092;-64
2023/06/03 10:45:26;;;;;;;;;;;;;;;;;;5028627;28;1615;-69
2023/06/03 10:47:52;;;;;;;;;;;;;;;;;;5020663;28;2293;-68
2023/06/03 10:50:25;;;;;;;;;;;;;;;;;;5022884;28;1794;-66
2023/06/03 10:52:57;;;;;;;;;;;;;;;;;;5018591;28;2234;-63
2023/06/03 10:55:30;;;;;;;;;;;;;;;;;;5020702;28;2164;-66
2023/06/03 10:58:28;;;;;;;;;;;;;;;;;;5027060;28;1688;-65
2023/06/03 11:01:00;;;;;;;;;;;;;;;;;;5013387;28;1834;-67
2023/06/03 11:03:31;;;;;;;;;;;;;;;;;;5028961;28;2156;-68
2023/06/03 11:06:15;;;;;;;;;;;;;;;;;;5027650;28;2052;-67
2023/06/03 11:09:00;;;;;;;;;;;;;;;;;;5042407;28;2162;-67
2023/06/03 11:11:41;;;;;;;;;;;;;;;;;;5026697;28;1789;-66
2023/06/03 11:14:10;;;;;;;;;;;;;;;;;;5025113;28;1822;-63
2023/06/03 11:16:54;;;;;;;;;;;;;;;;;;5044250;28;1790;-66
2023/06/03 11:19:40;;;;;;;;;;;;;;;;;;5025134;28;1846;-64
2023/06/03 11:22:07;;;;;;;;;;;;;;;;;;5028169;28;2262;-65
2023/06/03 11:24:38;;;;;;;;;;;;;;;;;;5026828;28;1921;-65
2023/06/03 11:27:19;;;;;;;;;;;;;;;;;;5025723;28;1906;-62
2023/06/03 11:29:56;;;;;;;;;;;;;;;;;;5025008;28;1815;-63
2023/06/03 11:32:27;;;;;;;;;;;;;;;;;;5011334;28;6530;-60
2023/06/03 11:34:59;;;;;;;;;;;;;;;;;;5019990;28;5171;-61
2023/06/03 11:37:44;;;;;;;;;;;;;;;;;;5024924;28;4508;-62
2023/06/03 11:40:09;;;;;;;;;;;;;;;;;;5018983;28;5111;-64
2023/06/03 11:42:47;;;;;;;;;;;;;;;;;;5023452;28;4516;-64
2023/06/03 11:45:32;;;;;;;;;;;;;;;;;;5025626;28;3156;-62
2023/06/03 11:47:57;;;;;;;;;;;;;;;;;;5023981;28;4990;-63
2023/06/03 11:50:23;;;;;;;;;;;;;;;;;;5024681;28;5019;-65
2023/06/03 11:52:48;;;;;;;;;;;;;;;;;;5023092;28;4520;-63
2023/06/03 11:55:26;;;;;;;;;;;;;;;;;;5023961;28;4998;-61
2023/06/03 11:57:51;;;;;;;;;;;;;;;;;;5023888;28;4702;-64
2023/06/03 12:00:20;;;;;;;;;;;;;;;;;;5040534;28;3244;-64
2023/06/03 12:02:48;;;;;;;;;;;;;;;;;;5020010;28;4600;-65
2023/06/03 12:05:15;;;;;;;;;;;;;;;;;;5026178;28;5334;-64
2023/06/03 12:07:43;;;;;;;;;;;;;;;;;;5023381;28;5800;-62
2023/06/03 12:10:08;;;;;;;;;;;;;;;;;;5025124;28;4841;-64
2023/06/03 12:12:33;;;;;;;;;;;;;;;;;;5024667;28;4517;-63
2023/06/03 12:15:05;;;;;;;;;;;;;;;;;;5027006;28;1148;-64
2023/06/03 12:17:31;;;;;;;;;;;;;;;;;;5022786;28;4865;-62
2023/06/03 12:19:58;;;;;;;;;;;;;;;;;;5023073;28;5097;-61
2023/06/03 12:22:25;;;;;;;;;;;;;;;;;;5054370;28;4524;-64
2023/06/03 12:24:50;;;;;;;;;;;;;;;;;;5026473;28;4452;-64
2023/06/03 12:27:22;;;;;;;;;;;;;;;;;;5024975;28;3534;-65
2023/06/03 12:30:06;;;;;;;;;;;;;;;;;;5025953;28;4663;-64
2023/06/03 12:32:42;;;;;;;;;;;;;;;;;;5051486;28;5454;-63
2023/06/03 12:35:11;;;;;;;;;;;;;;;;;;5026142;28;4675;-63
2023/06/03 12:37:38;;;;;;;;;;;;;;;;;;5028004;28;4682;-62
2023/06/03 12:40:04;;;;;;;;;;;;;;;;;;5026571;28;5130;-63
2023/06/03 12:42:38;;;;;;;;;;;;;;;;;;5025501;28;4517;-65
2023/06/03 12:45:05;;;;;;;;;;;;;;;;;;5030368;28;1063;-65
2023/06/03 12:47:40;;;;;;;;;;;;;;;;;;5028494;28;5003;-65
2023/06/03 12:50:08;;;;;;;;;;;;;;;;;;5041954;28;4727;-63
2023/06/03 12:52:38;;;;;;;;;;;;;;;;;;5029758;28;4701;-64
2023/06/03 12:55:07;;;;;;;;;;;;;;;;;;5028752;28;5197;-64
2023/06/03 12:57:32;;;;;;;;;;;;;;;;;;5029077;28;4442;-64
2023/06/03 12:59:58;;;;;;;;;;;;;;;;;;5029347;28;3534;-64
2023/06/03 13:02:23;;;;;;;;;;;;;;;;;;5029029;28;4583;-64
2023/06/03 13:04:49;;;;;;;;;;;;;;;;;;5030982;28;5145;-64
2023/06/03 13:07:14;;;;;;;;;;;;;;;;;;5029708;28;4841;-64
2023/06/03 13:09:39;;;;;;;;;;;;;;;;;;5026873;28;4656;-59
2023/06/03 13:12:05;;;;;;;;;;;;;;;;;;5028895;28;4210;-63
2023/06/03 13:14:30;;;;;;;;;;;;;;;;;;5028355;28;4921;-64
2023/06/03 13:16:55;;;;;;;;;;;;;;;;;;5029478;28;5798;-64
2023/06/03 13:19:20;;;;;;;;;;;;;;;;;;5028160;28;4637;-65
2023/06/03 13:21:46;;;;;;;;;;;;;;;;;;5027484;28;4679;-65
2023/06/03 13:24:11;;;;;;;;;;;;;;;;;;5035740;28;3302;-65
2023/06/03 13:26:36;;;;;;;;;;;;;;;;;;5028633;28;5154;-63
2023/06/03 13:29:01;;;;;;;;;;;;;;;;;;5029620;28;5044;-64
2023/06/03 13:31:27;;;;;;;;;;;;;;;;;;5025977;28;5150;-65
2023/06/03 13:33:53;;;;;;;;;;;;;;;;;;5028214;28;4749;-65
2023/06/03 13:36:18;;;;;;;;;;;;;;;;;;5028824;28;3054;-64
2023/06/03 13:38:43;;;;;;;;;;;;;;;;;;5042959;28;4800;-64
2023/06/03 13:41:08;;;;;;;;;;;;;;;;;;5027675;28;4673;-62
2023/06/03 13:43:34;;;;;;;;;;;;;;;;;;5029066;28;5022;-63
2023/06/03 13:45:59;;;;;;;;;;;;;;;;;;5028806;28;4615;-62
2023/06/03 13:48:24;;;;;;;;;;;;;;;;;;5029715;28;1973;-63
2023/06/03 13:50:52;;;;;;;;;;;;;;;;;;5027776;28;4433;-63
2023/06/03 13:53:17;;;;;;;;;;;;;;;;;;5029360;28;4904;-63
2023/06/03 13:55:42;;;;;;;;;;;;;;;;;;5026861;28;4529;-61
2023/06/03 13:58:08;;;;;;;;;;;;;;;;;;5027666;28;4751;-63
2023/06/03 14:00:33;;;;;;;;;;;;;;;;;;5029785;28;5089;-62
2023/06/03 14:02:58;;;;;;;;;;;;;;;;;;5026204;28;3684;-63
2023/06/03 14:05:24;;;;;;;;;;;;;;;;;;5026681;28;4733;-64
2023/06/03 14:07:50;;;;;;;;;;;;;;;;;;5030577;28;4529;-63
2023/06/03 14:10:15;;;;;;;;;;;;;;;;;;5025815;28;5019;-62
2023/06/03 14:12:41;;;;;;;;;;;;;;;;;;5027089;28;4538;-62
2023/06/03 14:15:06;;;;;;;;;;;;;;;;;;5029367;28;1383;-62
2023/06/03 14:17:31;;;;;;;;;;;;;;;;;;5039717;28;4675;-63
2023/06/03 14:19:57;;;;;;;;;;;;;;;;;;5026336;28;4561;-64
2023/06/03 14:22:23;;;;;;;;;;;;;;;;;;5027277;28;4524;-62
2023/06/03 14:24:48;;;;;;;;;;;;;;;;;;5028776;28;4660;-63
2023/06/03 14:27:13;;;;;;;;;;;;;;;;;;5025177;28;3800;-63
2023/06/03 14:29:39;;;;;;;;;;;;;;;;;;5026429;28;4669;-63
2023/06/03 14:32:04;;;;;;;;;;;;;;;;;;5023877;28;5417;-62
2023/06/03 14:34:30;;;;;;;;;;;;;;;;;;5043908;28;4496;-63
2023/06/03 14:36:55;;;;;;;;;;;;;;;;;;5027586;28;4511;-61
2023/06/03 14:39:20;;;;;;;;;;;;;;;;;;5029214;28;5011;-61
2023/06/03 14:41:45;;;;;;;;;;;;;;;;;;5026426;28;4363;-62
2023/06/03 14:44:11;;;;;;;;;;;;;;;;;;5046381;28;4641;-62
2023/06/03 14:46:36;;;;;;;;;;;;;;;;;;5045759;28;5029;-63
2023/06/03 14:49:01;;;;;;;;;;;;;;;;;;5027104;28;4507;-62
2023/06/03 14:51:26;;;;;;;;;;;;;;;;;;5027829;28;3228;-63
2023/06/03 14:53:52;;;;;;;;;;;;;;;;;;5027383;28;4784;-61
2023/06/03 14:56:17;;;;;;;;;;;;;;;;;;5058824;28;4789;-63
2023/06/03 14:58:42;;;;;;;;;;;;;;;;;;5025554;28;5176;-65
2023/06/03 15:01:07;;;;;;;;;;;;;;;;;;5026342;28;4712;-64
2023/06/03 15:03:33;;;;;;;;;;;;;;;;;;5044431;28;4616;-63
2023/06/03 15:05:58;;;;;;;;;;;;;;;;;;5027243;28;3181;-65
2023/06/03 15:08:24;;;;;;;;;;;;;;;;;;5024924;28;5181;-63
2023/06/03 15:10:50;;;;;;;;;;;;;;;;;;5058150;28;5090;-64
2023/06/03 15:13:16;;;;;;;;;;;;;;;;;;5026410;28;5022;-62
2023/06/03 15:15:41;;;;;;;;;;;;;;;;;;5024564;28;4471;-64
2023/06/03 15:18:06;;;;;;;;;;;;;;;;;;5027265;28;3054;-63
2023/06/03 15:20:32;;;;;;;;;;;;;;;;;;5024983;28;4456;-62
2023/06/03 15:22:57;;;;;;;;;;;;;;;;;;5027606;28;4619;-63
2023/06/03 15:25:22;;;;;;;;;;;;;;;;;;5020290;28;5122;-63
2023/06/03 15:27:47;;;;;;;;;;;;;;;;;;5023803;28;4547;-65
2023/06/03 15:30:13;;;;;;;;;;;;;;;;;;5058813;28;3222;-64
2023/06/03 15:32:38;;;;;;;;;;;;;;;;;;5024178;28;5058;-64
2023/06/03 15:35:04;;;;;;;;;;;;;;;;;;5027453;28;4453;-64
2023/06/03 15:37:29;;;;;;;;;;;;;;;;;;5024860;28;5311;-63
2023/06/03 15:39:54;;;;;;;;;;;;;;;;;;5026830;28;4661;-63
2023/06/03 15:42:20;;;;;;;;;;;;;;;;;;5026303;28;3252;-64
2023/06/03 15:44:45;;;;;;;;;;;;;;;;;;5024325;28;4874;-65
2023/06/03 15:47:10;;;;;;;;;;;;;;;;;;5025812;28;4506;-60
2023/06/03 15:49:35;;;;;;;;;;;;;;;;;;5027153;28;4471;-64
2023/06/03 15:52:01;;;;;;;;;;;;;;;;;;5040449;28;4840;-62
2023/06/03 15:54:26;;;;;;;;;;;;;;;;;;5027918;28;1097;-64
2023/06/03 15:56:53;;;;;;;;;;;;;;;;;;5021104;28;4475;-61
2023/06/03 15:59:21;;;;;;;;;;;;;;;;;;5024955;28;4927;-65
2023/06/03 16:01:46;;;;;;;;;;;;;;;;;;5025466;28;4477;-62
2023/06/03 16:04:11;;;;;;;;;;;;;;;;;;5026420;28;4642;-65
2023/06/03 16:06:37;;;;;;;;;;;;;;;;;;5026049;28;4513;-63
2023/06/03 16:09:02;;;;;;;;;;;;;;;;;;5027772;28;1973;-63
2023/06/03 16:11:28;;;;;;;;;;;;;;;;;;5028857;28;4602;-63
2023/06/03 16:13:53;;;;;;;;;;;;;;;;;;5030315;28;4648;-64
2023/06/03 16:16:19;;;;;;;;;;;;;;;;;;5029052;28;4649;-65
2023/06/03 16:18:44;;;;;;;;;;;;;;;;;;5028284;28;4481;-63
2023/06/03 16:21:09;;;;;;;;;;;;;;;;;;5029112;28;3362;-63
2023/06/03 16:23:34;;;;;;;;;;;;;;;;;;5060021;28;4489;-64
2023/06/03 16:26:00;;;;;;;;;;;;;;;;;;5029520;28;4529;-62
2023/06/03 16:28:25;;;;;;;;;;;;;;;;;;5045895;28;4896;-64
2023/06/03 16:30:51;;;;;;;;;;;;;;;;;;5028721;28;4649;-63
2023/06/03 16:33:16;;;;;;;;;;;;;;;;;;5028987;28;1583;-63
2023/06/03 16:35:41;;;;;;;;;;;;;;;;;;5027904;28;4421;-63
2023/06/03 16:38:06;;;;;;;;;;;;;;;;;;5030326;28;4822;-63
2023/06/03 16:40:32;;;;;;;;;;;;;;;;;;5028460;28;4823;-63
2023/06/03 16:42:57;;;;;;;;;;;;;;;;;;5028895;28;5598;-62
2023/06/03 16:45:22;;;;;;;;;;;;;;;;;;5029578;28;3331;-64
2023/06/03 16:47:47;;;;;;;;;;;;;;;;;;5060294;28;4998;-63
2023/06/03 16:50:13;;;;;;;;;;;;;;;;;;5026757;28;5265;-63
2023/06/03 16:52:38;;;;;;;;;;;;;;;;;;5028845;28;4638;-63
2023/06/03 16:55:03;;;;;;;;;;;;;;;;;;5044888;28;5378;-64
2023/06/03 16:57:29;;;;;;;;;;;;;;;;;;5026311;28;4579;-65
2023/06/03 16:59:54;;;;;;;;;;;;;;;;;;5030235;28;1184;-64
2023/06/03 17:02:21;;;;;;;;;;;;;;;;;;5028457;28;4900;-63